Terminal Aerodrome Forecast
Issued by NWS

Home | Current Version | Previous Version | Text Only | Print | Product List | Glossary Off
Versions: 1 2 3 4 5 6 7 8 9 10 11 12 13 14 15 16 17

594
FTUS41 KCLE 231732
TAFFDY
TAF
KFDY 231732Z 2318/2418 21010KT P6SM SCT050
     FM232300 18005KT P6SM SCT250
     FM241100 17005KT P6SM BKN150
     FM241600 19012KT P6SM OVC070=

USA.gov is the U.S. government's official web portal to all federal, state and local government web resources and services.